createdAt,value
2018-04-24T00:02:22.356Z,78.30
2018-04-24T00:04:49.951Z,78.40
2018-04-24T00:07:17.449Z,78.80
2018-04-24T00:09:45.411Z,78.60
2018-04-24T00:12:12.871Z,78.60
2018-04-24T00:14:40.384Z,78.90
2018-04-24T00:17:07.985Z,79.20
2018-04-24T00:19:35.505Z,78.70
2018-04-24T00:22:03.007Z,79.20
2018-04-24T00:24:30.518Z,79.10
2018-04-24T00:26:58.017Z,79.50
2018-04-24T00:29:25.628Z,79.90
2018-04-24T00:31:53.129Z,79.60
2018-04-24T00:34:20.721Z,80.10
2018-04-24T00:36:48.564Z,80.10
2018-04-24T00:39:16.069Z,80.10
2018-04-24T00:41:43.947Z,79.70
2018-04-24T00:44:11.891Z,80.00
2018-04-24T00:46:39.387Z,79.90
2018-04-24T00:49:06.882Z,80.00
2018-04-24T00:51:34.389Z,80.40
2018-04-24T00:54:02.301Z,80.20
2018-04-24T00:56:29.816Z,80.20
2018-04-24T00:58:57.337Z,79.40
2018-04-24T01:01:24.853Z,79.60
2018-04-24T01:03:52.356Z,79.80
2018-04-24T01:06:19.863Z,80.00
2018-04-24T01:08:47.373Z,79.80
2018-04-24T01:11:14.984Z,80.00
2018-04-24T01:13:42.482Z,79.90
2018-04-24T01:16:09.988Z,80.30
2018-04-24T01:18:37.479Z,80.10
2018-04-24T01:21:05.000Z,80.10
2018-04-24T01:23:32.993Z,79.60
2018-04-24T01:26:00.989Z,79.50
2018-04-24T01:28:28.875Z,79.50
2018-04-24T01:30:56.454Z,79.50
2018-04-24T01:33:23.940Z,79.40
2018-04-24T01:35:51.460Z,79.80
2018-04-24T01:38:19.025Z,80.00
2018-04-24T01:40:46.945Z,79.80
2018-04-24T01:43:14.466Z,79.80
2018-04-24T01:45:41.988Z,79.70
2018-04-24T01:48:09.965Z,79.80
2018-04-24T01:50:37.470Z,79.80
2018-04-24T01:53:05.715Z,80.40
2018-04-24T01:55:33.231Z,80.40
2018-04-24T01:58:00.736Z,80.40
2018-04-24T02:00:28.707Z,80.60
2018-04-24T02:02:56.194Z,80.60
2018-04-24T02:05:23.709Z,80.50
2018-04-24T02:07:51.272Z,80.40
2018-04-24T02:10:19.191Z,80.90
2018-04-24T02:12:46.751Z,80.90
2018-04-24T02:15:14.656Z,81.30
2018-04-24T02:17:42.558Z,81.30
2018-04-24T02:20:10.111Z,81.30
2018-04-24T02:22:37.583Z,81.70
2018-04-24T02:25:05.169Z,81.70
2018-04-24T02:27:32.636Z,81.70
2018-04-24T02:30:00.143Z,81.50
2018-04-24T02:32:27.661Z,81.50
2018-04-24T02:34:55.221Z,81.70
2018-04-24T02:37:22.760Z,81.40
2018-04-24T02:39:50.260Z,81.90
2018-04-24T02:42:17.770Z,81.90
2018-04-24T02:44:45.664Z,81.70
2018-04-24T02:47:13.665Z,81.70
2018-04-24T02:49:41.569Z,81.90
2018-04-24T02:52:09.096Z,81.90
2018-04-24T02:54:36.621Z,82.10
2018-04-24T02:57:04.166Z,82.30
2018-04-24T02:59:31.683Z,82.30
2018-04-24T03:01:59.682Z,82.20
2018-04-24T03:04:27.571Z,82.30
2018-04-24T03:06:55.495Z,82.10
2018-04-24T03:09:22.999Z,82.10
2018-04-24T03:11:50.590Z,82.70
2018-04-24T03:14:18.424Z,83.60
2018-04-24T03:16:45.999Z,83.60
2018-04-24T03:19:13.491Z,83.90
2018-04-24T03:21:41.003Z,83.60
2018-04-24T03:24:08.492Z,83.70
2018-04-24T03:26:35.998Z,83.70
2018-04-24T03:29:03.500Z,83.70
2018-04-24T03:31:31.107Z,83.80
2018-04-24T03:33:58.599Z,83.80
2018-04-24T03:36:26.495Z,83.40
2018-04-24T03:38:54.485Z,83.30
2018-04-24T03:41:22.375Z,83.30
2018-04-24T03:43:50.275Z,83.20
2018-04-24T03:46:18.164Z,83.30
2018-04-24T03:48:46.080Z,83.60
2018-04-24T03:51:13.567Z,83.60
2018-04-24T03:53:41.144Z,83.60
2018-04-24T03:56:08.631Z,84.10
2018-04-24T03:58:36.148Z,84.40
2018-04-24T04:01:03.649Z,84.30
2018-04-24T04:03:31.264Z,84.20
2018-04-24T04:05:59.157Z,84.40
2018-04-24T04:08:27.148Z,84.40
2018-04-24T04:10:55.034Z,84.40
2018-04-24T04:13:22.948Z,84.20
2018-04-24T04:15:50.969Z,84.20
2018-04-24T04:18:30.215Z,84.20
2018-04-24T04:21:09.756Z,83.80
2018-04-24T04:23:49.532Z,84.00
2018-04-24T04:26:17.419Z,83.70
2018-04-24T04:28:45.919Z,83.70
2018-04-24T04:31:13.517Z,83.90
2018-04-24T04:33:41.529Z,83.80
2018-04-24T04:36:09.019Z,83.80
2018-04-24T04:38:36.580Z,83.50
2018-04-24T04:41:04.464Z,83.70
2018-04-24T04:43:31.979Z,83.70
2018-04-24T04:45:59.536Z,84.10
2018-04-24T04:48:27.430Z,83.90
2018-04-24T04:50:55.315Z,83.50
2018-04-24T04:53:22.909Z,83.50
2018-04-24T04:55:50.795Z,83.60
2018-04-24T04:58:18.762Z,83.50
2018-04-24T05:00:46.268Z,83.50
2018-04-24T05:03:13.864Z,83.40
2018-04-24T05:05:41.747Z,83.10
2018-04-24T05:08:09.364Z,83.10
2018-04-24T05:10:36.868Z,83.20
2018-04-24T05:13:04.375Z,83.40
2018-04-24T05:15:31.888Z,83.50
2018-04-24T05:17:59.791Z,83.00
2018-04-24T05:20:27.767Z,83.20
2018-04-24T05:22:55.267Z,83.20
2018-04-24T05:25:23.162Z,83.00
2018-04-24T05:27:51.143Z,82.80
2018-04-24T05:30:18.741Z,82.80
2018-04-24T05:32:46.641Z,82.60
2018-04-24T05:35:14.607Z,82.70
2018-04-24T05:37:42.212Z,82.70
2018-04-24T05:40:10.124Z,82.80
2018-04-24T05:42:37.631Z,82.80
2018-04-24T05:45:05.134Z,82.80
2018-04-24T05:47:32.632Z,83.00
2018-04-24T05:50:00.135Z,82.90
2018-04-24T05:52:28.023Z,81.90
2018-04-24T05:54:55.938Z,82.30
2018-04-24T05:57:23.436Z,82.30
2018-04-24T05:59:50.947Z,81.60
2018-04-24T06:02:18.445Z,81.20
2018-04-24T06:04:46.046Z,80.70
2018-04-24T06:07:13.534Z,81.00
2018-04-24T06:09:41.437Z,81.10
2018-04-24T06:12:09.327Z,80.80
2018-04-24T06:14:37.321Z,80.50
2018-04-24T06:17:05.225Z,80.30
2018-04-24T06:19:32.730Z,80.30
2018-04-24T06:22:00.237Z,80.30
2018-04-24T06:24:27.759Z,79.40
2018-04-24T06:26:55.756Z,79.90
2018-04-24T06:29:23.650Z,79.20
2018-04-24T06:31:51.634Z,79.20
2018-04-24T06:34:19.159Z,79.20
2018-04-24T06:36:46.698Z,78.90
2018-04-24T06:39:14.282Z,79.00
2018-04-24T06:41:41.875Z,78.50
2018-04-24T06:44:09.458Z,78.70
2018-04-24T06:46:36.977Z,78.90
2018-04-24T06:49:04.481Z,78.70
2018-04-24T06:51:32.002Z,79.00
2018-04-24T06:53:59.505Z,78.80
2018-04-24T06:56:27.479Z,78.10
2018-04-24T06:58:55.081Z,78.10
2018-04-24T07:01:23.083Z,78.20
2018-04-24T07:03:50.980Z,77.90
2018-04-24T07:06:18.525Z,77.80
2018-04-24T07:08:46.131Z,78.10
2018-04-24T07:11:13.635Z,77.20
2018-04-24T07:13:41.525Z,76.40
2018-04-24T07:16:09.500Z,76.60
2018-04-24T07:18:37.079Z,76.60
2018-04-24T07:21:04.678Z,76.50
2018-04-24T07:23:32.677Z,77.00
2018-04-24T07:26:00.601Z,77.10
2018-04-24T07:28:28.139Z,77.10
2018-04-24T07:30:55.727Z,77.40
2018-04-24T07:33:23.331Z,76.70
2018-04-24T07:35:51.313Z,76.30
2018-04-24T07:38:18.814Z,76.30
2018-04-24T07:40:46.732Z,76.00
2018-04-24T07:43:14.233Z,76.00
2018-04-24T07:45:41.739Z,75.70
2018-04-24T07:48:09.344Z,75.90
2018-04-24T07:50:37.310Z,75.60
2018-04-24T07:53:04.769Z,75.60
2018-04-24T07:55:32.290Z,75.60
2018-04-24T07:57:59.791Z,75.60
2018-04-24T08:00:27.797Z,73.80
2018-04-24T08:02:55.297Z,73.80
2018-04-24T08:05:22.828Z,74.50
2018-04-24T08:07:50.437Z,74.10
2018-04-24T08:10:18.336Z,73.90
2018-04-24T08:12:46.311Z,74.10
2018-04-24T08:15:13.911Z,74.10
2018-04-24T08:17:41.894Z,73.60
2018-04-24T08:20:09.395Z,73.60
2018-04-24T08:22:38.806Z,73.90
2018-04-24T08:25:06.306Z,73.50
2018-04-24T08:27:34.212Z,73.90
2018-04-24T08:30:01.788Z,73.90
2018-04-24T08:32:29.698Z,73.20
2018-04-24T08:34:57.209Z,73.20
2018-04-24T08:37:24.729Z,73.30
2018-04-24T08:39:52.315Z,74.10
2018-04-24T08:42:19.829Z,74.10
2018-04-24T08:44:47.324Z,74.90
2018-04-24T08:47:14.849Z,74.50
2018-04-24T08:49:42.352Z,73.70
2018-04-24T08:52:09.867Z,73.60
2018-04-24T08:54:37.421Z,73.70
2018-04-24T08:57:05.428Z,74.70
2018-04-24T08:59:33.409Z,75.00
2018-04-24T09:02:01.482Z,74.40
2018-04-24T09:04:28.924Z,74.40
2018-04-24T09:06:56.453Z,71.80
2018-04-24T09:09:23.989Z,73.80
2018-04-24T09:11:51.537Z,73.80
2018-04-24T09:14:19.035Z,74.40
2018-04-24T09:16:47.002Z,75.90
2018-04-24T09:19:14.595Z,75.90
2018-04-24T09:21:42.113Z,76.50
2018-04-24T09:24:09.616Z,76.60
2018-04-24T09:26:37.128Z,76.50
2018-04-24T09:29:05.050Z,76.00
2018-04-24T09:31:38.693Z,77.80
2018-04-24T09:34:06.192Z,77.80
2018-04-24T09:36:33.726Z,79.80
2018-04-24T09:39:01.264Z,81.00
2018-04-24T09:41:28.774Z,82.50
2018-04-24T09:43:56.325Z,82.30
2018-04-24T09:46:24.409Z,83.20
2018-04-24T09:48:51.917Z,83.20
2018-04-24T09:51:19.484Z,84.10
2018-04-24T09:53:47.368Z,84.10
2018-04-24T09:56:15.260Z,82.20
2018-04-24T09:58:43.170Z,84.80
2018-04-24T10:01:10.720Z,84.80
2018-04-24T10:03:38.634Z,83.20
2018-04-24T10:06:06.183Z,83.20
2018-04-24T10:08:33.700Z,82.10
2018-04-24T10:11:01.208Z,84.30
2018-04-24T10:13:28.752Z,84.80
2018-04-24T10:15:56.222Z,85.00
2018-04-24T10:18:23.818Z,85.30
2018-04-24T10:20:51.322Z,83.00
2018-04-24T10:23:19.227Z,81.80
2018-04-24T10:25:46.711Z,81.80
2018-04-24T10:28:14.214Z,82.60
2018-04-24T10:30:41.702Z,80.80
2018-04-24T10:33:09.220Z,80.80
2018-04-24T10:35:36.711Z,79.30
2018-04-24T10:38:04.620Z,79.80
2018-04-24T10:40:32.505Z,80.10
2018-04-24T10:43:00.411Z,80.70
2018-04-24T10:45:28.292Z,80.80
2018-04-24T10:47:56.276Z,79.40
2018-04-24T10:50:23.715Z,79.40
2018-04-24T10:52:51.231Z,78.80
2018-04-24T10:55:18.732Z,78.80
2018-04-24T10:57:46.635Z,79.30
2018-04-24T11:00:14.195Z,79.30
2018-04-24T11:02:41.704Z,79.50
2018-04-24T11:05:09.225Z,78.80
2018-04-24T11:07:36.738Z,78.20
2018-04-24T11:10:04.235Z,79.00
2018-04-24T11:12:31.743Z,79.20
2018-04-24T11:14:59.232Z,77.80
2018-04-24T11:17:26.733Z,77.40
2018-04-24T11:19:54.264Z,77.90
2018-04-24T11:22:21.754Z,78.30
2018-04-24T11:24:49.672Z,77.80
2018-04-24T11:27:17.174Z,77.80
2018-04-24T11:29:44.692Z,77.20
2018-04-24T11:32:12.290Z,76.10
2018-04-24T11:34:39.808Z,76.50
2018-04-24T11:37:07.373Z,75.90
2018-04-24T11:39:35.356Z,75.10
2018-04-24T11:42:03.251Z,75.40
2018-04-24T11:44:30.858Z,75.40
2018-04-24T11:46:58.749Z,74.10
2018-04-24T11:49:26.661Z,74.10
2018-04-24T11:51:54.204Z,74.10
2018-04-24T11:54:21.716Z,74.90
2018-04-24T11:56:49.270Z,74.90
2018-04-24T11:59:16.775Z,75.00
2018-04-24T12:01:44.751Z,73.90
2018-04-24T12:04:12.341Z,73.90
2018-04-24T12:06:39.923Z,74.30
2018-04-24T12:09:07.539Z,74.00
2018-04-24T12:11:35.036Z,73.10
2018-04-24T12:14:02.544Z,74.40
2018-04-24T12:16:30.031Z,72.40
2018-04-24T12:18:57.655Z,73.70
2018-04-24T12:21:25.558Z,72.90
2018-04-24T12:23:53.089Z,72.90
2018-04-24T12:26:20.616Z,71.90
2018-04-24T12:28:48.529Z,72.00
2018-04-24T12:31:16.019Z,72.00
2018-04-24T12:33:43.536Z,72.50
2018-04-24T12:36:11.032Z,72.20
2018-04-24T12:38:38.554Z,72.70
2018-04-24T12:41:06.445Z,72.40
2018-04-24T12:43:34.424Z,72.70
2018-04-24T12:46:02.418Z,73.10
2018-04-24T12:48:30.402Z,73.80
2018-04-24T12:50:57.932Z,73.80
2018-04-24T12:53:25.589Z,73.50
2018-04-24T12:55:53.536Z,73.30
2018-04-24T12:58:21.023Z,73.30
2018-04-24T13:00:48.522Z,73.40
2018-04-24T13:03:16.032Z,74.30
2018-04-24T13:05:44.014Z,73.80
2018-04-24T13:08:11.609Z,73.80
2018-04-24T13:10:39.521Z,73.10
2018-04-24T13:13:07.024Z,73.10
2018-04-24T13:15:34.577Z,73.00
2018-04-24T13:18:02.563Z,72.70
2018-04-24T13:20:30.463Z,74.00
2018-04-24T13:22:58.356Z,73.80
2018-04-24T13:25:26.377Z,73.90
2018-04-24T13:27:53.818Z,73.90
2018-04-24T13:30:21.323Z,74.50
2018-04-24T13:32:49.224Z,75.20
2018-04-24T13:35:16.792Z,75.30
2018-04-24T13:37:44.678Z,75.90
2018-04-24T13:40:12.263Z,75.90
2018-04-24T13:42:40.268Z,75.10
2018-04-24T13:45:08.189Z,75.00
2018-04-24T13:47:35.687Z,75.00
2018-04-24T13:50:03.225Z,75.70
2018-04-24T13:52:31.135Z,75.20
2018-04-24T13:54:59.100Z,74.90
2018-04-24T13:57:26.610Z,74.90
2018-04-24T13:59:54.584Z,75.20
2018-04-24T14:02:22.091Z,75.20
2018-04-24T14:04:49.664Z,75.20
2018-04-24T14:07:17.567Z,75.80
2018-04-24T14:09:45.480Z,75.80
2018-04-24T14:12:13.058Z,75.80
2018-04-24T14:14:40.487Z,76.60
2018-04-24T14:17:08.008Z,76.20
2018-04-24T14:19:35.585Z,75.10
2018-04-24T14:22:03.498Z,76.30
2018-04-24T14:24:31.005Z,76.30
2018-04-24T14:26:58.529Z,76.60
2018-04-24T14:29:26.122Z,75.70
2018-04-24T14:31:53.709Z,76.10
2018-04-24T14:34:21.697Z,75.60
2018-04-24T14:36:49.216Z,75.60
2018-04-24T14:39:16.716Z,75.90
2018-04-24T14:41:44.236Z,74.90
2018-04-24T14:44:11.831Z,75.20
2018-04-24T14:46:39.415Z,74.90
2018-04-24T14:49:06.994Z,75.20
2018-04-24T14:51:34.595Z,75.00
2018-04-24T14:54:02.080Z,75.10
2018-04-24T14:56:29.997Z,74.40
2018-04-24T14:58:57.509Z,74.40
2018-04-24T15:01:25.145Z,74.80
2018-04-24T15:03:53.035Z,74.60
2018-04-24T15:06:20.934Z,74.90
2018-04-24T15:08:48.938Z,75.00
2018-04-24T15:11:16.508Z,74.90
2018-04-24T15:13:44.487Z,75.00
2018-04-24T15:16:12.085Z,75.00
2018-04-24T15:18:39.593Z,75.70
2018-04-24T15:21:07.152Z,75.80
2018-04-24T15:23:35.172Z,74.40
2018-04-24T15:26:02.741Z,74.40
2018-04-24T15:28:30.825Z,74.40
2018-04-24T15:30:58.740Z,74.80
2018-04-24T15:33:26.632Z,74.30
2018-04-24T15:35:54.549Z,73.80
2018-04-24T15:38:22.046Z,73.80
2018-04-24T15:40:49.570Z,73.40
2018-04-24T15:43:17.183Z,73.20
2018-04-24T15:45:45.072Z,73.30
2018-04-24T15:48:12.980Z,73.00
2018-04-24T15:50:40.523Z,73.00
2018-04-24T15:53:08.423Z,72.30
2018-04-24T15:55:36.309Z,72.30
2018-04-24T15:58:03.837Z,72.30
2018-04-24T16:00:31.389Z,72.70
2018-04-24T16:02:59.346Z,72.80
2018-04-24T16:05:26.814Z,72.80
2018-04-24T16:07:54.357Z,72.70
2018-04-24T16:10:22.327Z,72.30
2018-04-24T16:12:49.849Z,72.30
2018-04-24T16:15:17.390Z,72.60
2018-04-24T16:17:44.912Z,72.40
2018-04-24T16:20:12.403Z,72.70
2018-04-24T16:22:39.941Z,71.40
2018-04-24T16:25:07.458Z,71.80
2018-04-24T16:27:35.437Z,72.70
2018-04-24T16:30:03.388Z,71.90
2018-04-24T16:32:30.911Z,71.90
2018-04-24T16:34:58.408Z,72.50
2018-04-24T16:37:26.384Z,73.30
2018-04-24T16:39:53.966Z,73.30
2018-04-24T16:42:21.471Z,73.50
2018-04-24T16:44:49.451Z,72.70
2018-04-24T16:47:17.453Z,71.80
2018-04-24T16:49:45.343Z,72.10
2018-04-24T16:52:13.255Z,72.90
2018-04-24T16:54:40.832Z,72.90
2018-04-24T16:57:08.749Z,72.20
2018-04-24T16:59:36.261Z,72.20
2018-04-24T17:02:03.774Z,72.60
2018-04-24T17:04:31.288Z,73.10
2018-04-24T17:06:58.812Z,73.10
2018-04-24T17:09:26.314Z,73.50
2018-04-24T17:11:53.898Z,74.80
2018-04-24T17:14:21.421Z,74.70
2018-04-24T17:16:48.927Z,74.20
2018-04-24T17:19:16.449Z,74.70
2018-04-24T17:21:44.066Z,74.20
2018-04-24T17:24:12.044Z,73.60
2018-04-24T17:26:39.629Z,73.60
2018-04-24T17:29:07.663Z,74.50
2018-04-24T17:31:35.147Z,74.40
2018-04-24T17:34:02.669Z,74.30
2018-04-24T17:36:30.169Z,74.80
2018-04-24T17:38:57.751Z,74.70
2018-04-24T17:41:25.261Z,74.40
2018-04-24T17:43:53.240Z,74.30
2018-04-24T17:46:21.147Z,74.40
2018-04-24T17:48:49.089Z,74.90
2018-04-24T17:51:16.603Z,74.80
2018-04-24T17:53:44.196Z,75.20
2018-04-24T17:56:11.784Z,75.40
2018-04-24T17:58:39.695Z,75.20
2018-04-24T18:01:07.201Z,75.20
2018-04-24T18:03:34.737Z,75.30
2018-04-24T18:06:02.632Z,76.70
2018-04-24T18:08:30.544Z,77.50
2018-04-24T18:10:58.062Z,77.50
2018-04-24T18:13:25.677Z,77.50
2018-04-24T18:15:53.192Z,78.30
2018-04-24T18:18:21.177Z,78.50
2018-04-24T18:20:49.103Z,78.70
2018-04-24T18:23:16.657Z,78.70
2018-04-24T18:25:44.550Z,79.20
2018-04-24T18:28:12.455Z,79.00
2018-04-24T18:30:40.352Z,79.00
2018-04-24T18:33:07.868Z,79.00
2018-04-24T18:35:35.362Z,79.10
2018-04-24T18:38:02.967Z,79.80
2018-04-24T18:40:30.572Z,81.10
2018-04-24T18:42:58.594Z,81.30
2018-04-24T18:45:26.120Z,81.30
2018-04-24T18:47:53.610Z,82.20
2018-04-24T18:50:21.136Z,82.50
2018-04-24T18:52:48.654Z,82.80
2018-04-24T18:55:16.284Z,82.50
2018-04-24T18:57:44.170Z,82.50
2018-04-24T19:00:11.676Z,82.50
2018-04-24T19:02:39.603Z,83.60
2018-04-24T19:05:07.146Z,83.60
2018-04-24T19:07:35.030Z,84.00
2018-04-24T19:10:02.947Z,83.40
2018-04-24T19:12:30.513Z,83.40
2018-04-24T19:14:58.497Z,82.80
2018-04-24T19:17:26.396Z,82.70
2018-04-24T19:19:54.309Z,82.70
2018-04-24T19:22:21.798Z,82.70
2018-04-24T19:24:54.952Z,83.50
2018-04-24T19:27:22.450Z,84.10
2018-04-24T19:29:49.981Z,84.20
2018-04-24T19:32:37.338Z,83.50
2018-04-24T19:35:04.857Z,83.90
2018-04-24T19:37:32.364Z,84.10
2018-04-24T19:40:05.659Z,83.70
2018-04-24T19:42:33.158Z,84.20
2018-04-24T19:45:00.773Z,83.70
2018-04-24T19:47:28.878Z,83.00
2018-04-24T19:50:02.164Z,83.00
2018-04-24T19:52:29.741Z,82.60
2018-04-24T19:55:02.846Z,82.70
2018-04-24T19:57:30.405Z,83.20
2018-04-24T19:59:57.924Z,83.60
2018-04-24T20:02:25.536Z,83.60
2018-04-24T20:04:53.050Z,83.50
2018-04-24T20:07:20.555Z,83.10
2018-04-24T20:09:48.075Z,83.40
2018-04-24T20:12:15.572Z,84.00
2018-04-24T20:14:43.106Z,84.40
2018-04-24T20:17:10.607Z,84.70
2018-04-24T20:19:38.137Z,85.10
2018-04-24T20:22:05.648Z,85.50
2018-04-24T20:24:33.152Z,86.40
2018-04-24T20:27:00.659Z,86.60
2018-04-24T20:29:28.247Z,87.00
2018-04-24T20:31:55.832Z,86.80
2018-04-24T20:34:23.332Z,86.50
2018-04-24T20:36:51.320Z,85.40
2018-04-24T20:39:18.894Z,85.40
2018-04-24T20:41:46.493Z,85.80
2018-04-24T20:44:14.401Z,85.00
2018-04-24T20:46:42.414Z,84.90
2018-04-24T20:49:10.381Z,84.80
2018-04-24T20:51:38.316Z,85.10
2018-04-24T20:54:05.812Z,85.10
2018-04-24T20:56:33.332Z,85.40
2018-04-24T20:59:00.823Z,85.30
2018-04-24T21:01:28.717Z,85.90
2018-04-24T21:03:56.694Z,86.00
2018-04-24T21:06:24.210Z,85.90
2018-04-24T21:08:52.108Z,85.70
2018-04-24T21:11:19.659Z,85.70
2018-04-24T21:13:47.261Z,85.60
2018-04-24T21:16:15.257Z,85.50
2018-04-24T21:18:42.756Z,85.50
2018-04-24T21:21:10.284Z,85.70
2018-04-24T21:23:37.793Z,86.40
2018-04-24T21:26:05.336Z,85.70
2018-04-24T21:28:32.844Z,85.30
2018-04-24T21:31:00.437Z,86.10
2018-04-24T21:33:27.983Z,86.10
2018-04-24T21:35:55.537Z,86.00
2018-04-24T21:38:23.536Z,86.50
2018-04-24T21:40:51.049Z,86.50
2018-04-24T21:43:18.548Z,86.50
2018-04-24T21:45:46.083Z,86.40
2018-04-24T21:48:13.980Z,86.40
2018-04-24T21:50:41.480Z,86.40
2018-04-24T21:53:08.999Z,86.70
2018-04-24T21:55:36.483Z,87.40
2018-04-24T21:58:03.986Z,87.80
2018-04-24T22:00:31.488Z,87.80
2018-04-24T22:02:59.412Z,88.00
2018-04-24T22:05:26.915Z,88.00
2018-04-24T22:07:54.531Z,88.70
2018-04-24T22:10:22.032Z,88.20
2018-04-24T22:12:49.998Z,87.80
2018-04-24T22:15:17.503Z,87.80
2018-04-24T22:17:45.487Z,87.80
2018-04-24T22:20:13.070Z,87.80
2018-04-24T22:22:40.573Z,86.90
2018-04-24T22:25:08.091Z,86.80
2018-04-24T22:27:35.606Z,87.20
2018-04-24T22:30:03.216Z,86.80
2018-04-24T22:32:31.123Z,86.30
2018-04-24T22:34:59.029Z,85.80
2018-04-24T22:37:26.579Z,85.80
2018-04-24T22:39:54.070Z,85.60
2018-04-24T22:42:21.991Z,85.50
2018-04-24T22:44:49.542Z,85.50
2018-04-24T22:47:17.051Z,85.70
2018-04-24T22:49:44.608Z,86.00
2018-04-24T22:52:12.116Z,85.70
2018-04-24T22:54:39.680Z,85.80
2018-04-24T22:57:07.695Z,85.70
2018-04-24T22:59:35.269Z,85.70
2018-04-24T23:02:02.813Z,85.70
2018-04-24T23:04:30.318Z,86.00
2018-04-24T23:06:57.888Z,86.00
2018-04-24T23:09:25.384Z,86.00
2018-04-24T23:12:04.859Z,86.20
2018-04-24T23:14:44.531Z,85.90
2018-04-24T23:17:23.970Z,85.90
2018-04-24T23:20:03.439Z,85.70
2018-04-24T23:22:30.960Z,85.90
2018-04-24T23:24:58.940Z,85.60
2018-04-24T23:27:26.837Z,85.60
2018-04-24T23:29:54.830Z,85.70
2018-04-24T23:32:22.715Z,85.10
2018-04-24T23:34:50.305Z,85.10
2018-04-24T23:37:18.200Z,83.80
2018-04-24T23:39:46.118Z,82.60
2018-04-24T23:42:13.612Z,82.60
2018-04-24T23:44:41.137Z,83.00
2018-04-24T23:47:08.636Z,82.80
2018-04-24T23:49:36.138Z,82.20
2018-04-24T23:52:04.113Z,81.10
2018-04-24T23:54:31.637Z,81.10
2018-04-24T23:56:59.137Z,80.80
2018-04-24T23:59:26.665Z,80.60
